Allie B — WDD3857 — position and weather

sailwx.info

Track history (hours):
 
Tides and Currents Weather Stations Pressure Air Temp Water Temp Dewpoint Dewpoint Depression Visibility Wind Speed Wind Dir Waves Ship Positions

Allie B

Owner: Dann, Stephen, Tampa, FL. More information available from US FCC via Universal Licensing System and Coast Guard Vessel Documentation Center.

Last reported at 2017-Nov-18 11:31 UTC. Time now 2017-Nov-18 11:56 UTC.
Position N 39°57' W 075°08'.

Length 35 m; draft 4 m.

Type: Tow > 200 m length. MMSI: 367137180.

Date/timePositionNaut miles runAvg speedWind from/ knotsBaromVisibWave heightAir tempDewpointWater temp
2017-Nov-18 11:31N 39°57' W 075°08'0 0.0
2017-Nov-18 11:01N 39°57' W 075°08'0 0.0
2017-Nov-18 10:31N 39°57' W 075°08'0 0.0
2017-Nov-18 10:00N 39°57' W 075°08'0 0.0
2017-Nov-18 09:31N 39°57' W 075°08'0 0.0
2017-Nov-18 09:01N 39°57' W 075°08'0 0.0
2017-Nov-18 08:30N 39°57' W 075°08'0 0.0
2017-Nov-18 08:01N 39°57' W 075°08'0 0.0
2017-Nov-18 07:31N 39°57' W 075°08'0 0.0
2017-Nov-18 07:00N 39°57' W 075°08'0 0.0
2017-Nov-18 06:30N 39°57' W 075°08'0 0.0
2017-Nov-18 06:00N 39°57' W 075°08'0 0.0
2017-Nov-18 05:30N 39°57' W 075°08'0 0.0
2017-Nov-18 05:00N 39°57' W 075°08'0 0.0
2017-Nov-18 04:30N 39°57' W 075°08'0 0.0
2017-Nov-18 04:00N 39°57' W 075°08'0 0.0
2017-Nov-18 03:30N 39°57' W 075°08'0 0.0
2017-Nov-18 03:00N 39°57' W 075°08'0 0.0
2017-Nov-18 02:30N 39°57' W 075°08'0 0.0
2017-Nov-18 02:01N 39°57' W 075°08'0 0.0
2017-Nov-18 01:30N 39°57' W 075°08'0 0.0
2017-Nov-18 01:00N 39°57' W 075°08'0 0.0
2017-Nov-18 00:30N 39°57' W 075°08'0 0.0
2017-Nov-18 00:00N 39°57' W 075°08'0 0.0
2017-Nov-17 23:31N 39°57' W 075°08'0 0.0
2017-Nov-17 23:00N 39°57' W 075°08'0 0.0
2017-Nov-17 22:30N 39°57' W 075°08'0 0.0
2017-Nov-17 22:01N 39°57' W 075°08'0 0.0
2017-Nov-17 21:30N 39°57' W 075°08'0 0.0
2017-Nov-17 20:47N 39°57' W 075°08'0 0.0
2017-Nov-17 20:30N 39°57' W 075°08'0 0.0
2017-Nov-17 20:00N 39°57' W 075°08'0 0.0
2017-Nov-17 19:30N 39°57' W 075°08'0 0.0
2017-Nov-17 19:00N 39°57' W 075°08'0 0.0
2017-Nov-17 18:30N 39°57' W 075°08'0 0.0
2017-Nov-17 18:00N 39°57' W 075°08'2 4.4
2017-Nov-17 17:30N 39°55' W 075°08'3 6.8
2017-Nov-17 17:01N 39°53' W 075°12'0 0.3
2017-Nov-17 16:30N 39°53' W 075°12'0 0.0
2017-Nov-17 16:00N 39°53' W 075°12'0 0.0
2017-Nov-17 15:30N 39°53' W 075°12'0 0.0
2017-Nov-17 15:00N 39°53' W 075°12'0 0.0
2017-Nov-17 14:30N 39°53' W 075°12'0 0.0
2017-Nov-17 14:00N 39°53' W 075°12'0 0.0
2017-Nov-17 13:30N 39°53' W 075°12'0 0.0
2017-Nov-17 13:01N 39°53' W 075°12'0 0.0
2017-Nov-17 12:30N 39°53' W 075°12'0 0.0
2017-Nov-17 12:00N 39°53' W 075°12'3 5.2
2017-Nov-17 11:30N 39°52' W 075°14'4 7.5
2017-Nov-17 11:00N 39°51' W 075°19'3 6.7
2017-Nov-17 10:30N 39°50' W 075°23'3 6.9
2017-Nov-17 10:00N 39°48' W 075°26'3 6.7
2017-Nov-17 09:30N 39°45' W 075°29'3 7.0
2017-Nov-17 09:00N 39°42' W 075°31'4 7.4
2017-Nov-17 08:30N 39°39' W 075°33'3 6.3
2017-Nov-17 08:00N 39°36' W 075°34'2 4.9
2017-Nov-17 07:30N 39°33' W 075°35'4 7.8
2017-Nov-17 07:00N 39°33' W 075°40'3 6.7
2017-Nov-17 06:30N 39°32' W 075°45'3 6.3
2017-Nov-17 06:00N 39°32' W 075°49'3 6.1
2017-Nov-17 05:30N 39°31' W 075°53'4 8.6
2017-Nov-17 05:00N 39°29' W 075°57'510.0
2017-Nov-17 04:30N 39°25' W 076°02'5 9.5
2017-Nov-17 04:00N 39°23' W 076°07'5 9.4
2017-Nov-17 03:30N 39°20' W 076°12'5 9.2
2017-Nov-17 02:57N 39°15' W 076°14'8 9.6
2017-Nov-17 02:07N 39°08' W 076°19'59 9.5
2017-Nov-16 19:54N 38°09' W 076°17'510.2
2017-Nov-16 19:26N 38°05' W 076°15'6510.1
2017-Nov-16 13:03N 37°00' W 076°17'1 9.5
2017-Nov-16 12:56N 36°59' W 076°19'410.4
2017-Nov-16 12:30N 36°55' W 076°20'4 8.9
2017-Nov-16 12:00N 36°51' W 076°18'3 5.7
2017-Nov-16 11:30N 36°48' W 076°17'2 3.7
2017-Nov-16 11:00N 36°46' W 076°18'1 1.2
2017-Nov-16 10:31N 36°46' W 076°18'1 1.3
2017-Nov-16 10:01N 36°47' W 076°18'2 3.5
2017-Nov-16 09:30N 36°48' W 076°17'3 5.6
2017-Nov-16 09:00N 36°51' W 076°18'3 5.3
2017-Nov-16 08:30N 36°53' W 076°20'4 6.6
2017-Nov-16 07:57N 36°57' W 076°20'11 2.3
2017-Nov-16 03:07N 36°58' W 076°06'0 4.3
2017-Nov-16 03:00N 36°58' W 076°06'2 4.9
2017-Nov-16 02:30N 36°58' W 076°03'170 7.5
2017-Nov-15 04:02N 39°23' W 074°12'4 8.7
2017-Nov-15 03:35N 39°26' W 074°09'1 8.8
2017-Nov-15 03:29N 39°27' W 074°08'4 8.7
2017-Nov-15 03:00N 39°30' W 074°05'4 8.8
2017-Nov-15 02:30N 39°35' W 074°03'4 8.8
2017-Nov-15 02:00N 39°39' W 074°02'5 9.0
2017-Nov-15 01:30N 39°43' W 073°60'5 9.3
2017-Nov-15 01:00N 39°48' W 073°58'5 9.1
2017-Nov-15 00:30N 39°52' W 073°58'30 9.1
2017-Nov-14 21:12N 40°22' W 073°55'2 9.3
2017-Nov-14 20:58N 40°24' W 073°54'4 7.8
2017-Nov-14 20:30N 40°28' W 073°55'3 5.9
2017-Nov-14 19:55N 40°30' W 073°58'3 6.5
2017-Nov-14 19:30N 40°32' W 074°01'4 7.4
2017-Nov-14 19:00N 40°35' W 074°02'3 6.8
2017-Nov-14 18:30N 40°39' W 074°02'1 1.3
2017-Nov-14 18:00N 40°39' W 074°02'0 0.1
2017-Nov-14 17:31N 40°39' W 074°02'3 5.1
2017-Nov-14 17:00N 40°39' W 074°06'1 2.7
2017-Nov-14 16:30N 40°39' W 074°07'0 0.1
2017-Nov-14 15:47N 40°39' W 074°07'0 0.1
2017-Nov-14 15:30N 40°39' W 074°07'0 0.0
2017-Nov-14 15:00N 40°39' W 074°07'0 0.0
2017-Nov-14 14:30N 40°39' W 074°07'0 0.0
2017-Nov-14 14:00N 40°39' W 074°07'1 1.5
2017-Nov-14 13:30N 40°39' W 074°06'4 8.6
2017-Nov-14 13:00N 40°40' W 074°01'1 1.2
2017-Nov-14 12:30N 40°40' W 074°01'1 1.7
2017-Nov-14 12:00N 40°39' W 074°02'3 5.8
2017-Nov-14 11:31N 40°42' W 074°00'4 7.7
2017-Nov-14 11:00N 40°45' W 073°58'4 7.2
2017-Nov-14 10:30N 40°48' W 073°55'4 7.9
2017-Nov-14 10:00N 40°48' W 073°49'3 6.1
2017-Nov-14 09:30N 40°50' W 073°46'43 9.5
2017-Nov-14 04:55N 41°05' W 072°52'4 9.2
2017-Nov-14 04:29N 41°06' W 072°47'4 9.1
2017-Nov-14 04:01N 41°08' W 072°42'4 8.9
2017-Nov-14 03:31N 41°09' W 072°36'4 8.5
2017-Nov-14 03:00N 41°10' W 072°31'4 8.4
2017-Nov-14 02:30N 41°11' W 072°25'4 8.5
2017-Nov-14 02:01N 41°12' W 072°20'5 9.0
2017-Nov-14 01:31N 41°13' W 072°14'42 1.4
2017-Nov-12 19:18N 41°35' W 071°25'1 3.7
2017-Nov-12 19:00N 41°34' W 071°25'0 0.8
2017-Nov-12 18:30N 41°34' W 071°24'0 0.2
2017-Nov-12 18:00N 41°34' W 071°24'0 0.2
2017-Nov-12 17:30N 41°34' W 071°24'0 0.1
2017-Nov-12 17:00N 41°34' W 071°24'1 1.1
2017-Nov-12 16:30N 41°33' W 071°24'37 4.1
2017-Nov-12 07:27N 41°14' W 072°06'2 5.2
2017-Nov-12 07:00N 41°14' W 072°09'3 5.4
2017-Nov-12 06:30N 41°14' W 072°13'3 6.0
2017-Nov-12 05:59N 41°13' W 072°17'3 6.2
2017-Nov-12 05:30N 41°12' W 072°21'3 6.6
2017-Nov-12 05:00N 41°11' W 072°25'3 6.9
2017-Nov-12 04:30N 41°10' W 072°29'4 7.4
2017-Nov-12 04:00N 41°09' W 072°34'4 7.9
2017-Nov-12 03:27N 41°08' W 072°40'51 7.5
2017-Nov-11 20:38N 40°52' W 073°44'2 7.2
2017-Nov-11 20:25N 40°51' W 073°45'3 6.6
2017-Nov-11 19:58N 40°48' W 073°47'4 7.9
2017-Nov-11 19:30N 40°48' W 073°52'3 6.6
2017-Nov-11 19:00N 40°47' W 073°56'4 7.3
2017-Nov-11 18:30N 40°44' W 073°58'3 6.2
2017-Nov-11 18:00N 40°41' W 074°01'1 2.5
2017-Nov-11 17:30N 40°40' W 074°01'0 0.0
2017-Nov-11 17:01N 40°40' W 074°01'1 1.8
2017-Nov-11 16:30N 40°40' W 074°02'4 8.9
2017-Nov-11 16:00N 40°39' W 074°07'2 4.6
2017-Nov-11 15:30N 40°39' W 074°04'2 3.2
2017-Nov-11 15:01N 40°39' W 074°02'2 4.6
2017-Nov-11 14:31N 40°39' W 074°05'1 2.2
2017-Nov-11 14:01N 40°39' W 074°07'0 0.0
2017-Nov-11 13:30N 40°39' W 074°07'0 0.0
2017-Nov-11 13:00N 40°39' W 074°07'1 1.4
2017-Nov-11 12:30N 40°38' W 074°07'0 0.0
2017-Nov-11 12:00N 40°38' W 074°07'0 0.0
2017-Nov-11 11:30N 40°38' W 074°07'0 0.0
2017-Nov-11 11:00N 40°38' W 074°07'0 0.0
2017-Nov-11 10:30N 40°38' W 074°07'0 0.0
2017-Nov-11 10:00N 40°38' W 074°07'0 0.0
2017-Nov-11 09:30N 40°38' W 074°07'0 0.0
2017-Nov-11 09:00N 40°38' W 074°07'0 0.0
2017-Nov-11 08:30N 40°38' W 074°07'0 0.0
2017-Nov-11 08:00N 40°38' W 074°07'0 0.0
2017-Nov-11 07:30N 40°38' W 074°07'0 0.0
2017-Nov-11 07:00N 40°38' W 074°07'0 0.0
2017-Nov-11 06:30N 40°38' W 074°07'0 0.0
2017-Nov-11 06:00N 40°38' W 074°07'0 0.0
2017-Nov-11 05:30N 40°38' W 074°07'0 0.0
2017-Nov-11 05:00N 40°38' W 074°07'0 0.0
2017-Nov-11 04:30N 40°38' W 074°07'0 0.0
2017-Nov-11 04:00N 40°38' W 074°07'0 0.0
2017-Nov-11 03:30N 40°38' W 074°07'0 0.0
2017-Nov-11 03:00N 40°38' W 074°07'0 0.0
2017-Nov-11 02:30N 40°38' W 074°07'0 0.0
2017-Nov-11 02:00N 40°38' W 074°07'0 0.0
2017-Nov-11 01:30N 40°38' W 074°07'0 0.0
2017-Nov-11 01:00N 40°38' W 074°07'0 0.0
2017-Nov-11 00:30N 40°38' W 074°07'0 0.0
2017-Nov-11 00:00N 40°38' W 074°07'0 0.0
2017-Nov-10 23:30N 40°38' W 074°07'0 0.0
2017-Nov-10 23:00N 40°38' W 074°07'0 0.0
2017-Nov-10 22:30N 40°38' W 074°07'0 0.0
2017-Nov-10 22:00N 40°38' W 074°07'0 0.0
2017-Nov-10 21:30N 40°38' W 074°07'0 0.0
2017-Nov-10 21:00N 40°38' W 074°07'0 0.0
2017-Nov-10 20:30N 40°38' W 074°07'0 0.0
2017-Nov-10 20:00N 40°38' W 074°07'0 0.0
2017-Nov-10 19:30N 40°38' W 074°07'0 0.0
2017-Nov-10 19:00N 40°38' W 074°07'0 0.0
2017-Nov-10 18:30N 40°38' W 074°07'0 0.0
2017-Nov-10 18:00N 40°38' W 074°07'0 0.0
2017-Nov-10 17:30N 40°38' W 074°07'0 0.0
2017-Nov-10 17:00N 40°38' W 074°07'0 0.0
2017-Nov-10 16:30N 40°38' W 074°07'0 0.0
2017-Nov-10 16:00N 40°38' W 074°07'0 0.0
2017-Nov-10 15:30N 40°38' W 074°07'0 0.0
2017-Nov-10 15:00N 40°38' W 074°07'0 0.0
2017-Nov-10 14:30N 40°38' W 074°07'0 0.0
2017-Nov-10 14:00N 40°38' W 074°07'0 0.0
2017-Nov-10 13:30N 40°38' W 074°07'0 0.0
2017-Nov-10 13:00N 40°38' W 074°07'0 0.0
2017-Nov-10 12:30N 40°38' W 074°07'0 0.0
2017-Nov-10 12:00N 40°38' W 074°07'0 0.0
2017-Nov-10 11:29N 40°38' W 074°07'0 0.0
2017-Nov-10 11:00N 40°38' W 074°07'0 0.0
2017-Nov-10 10:30N 40°38' W 074°07'0 0.0
2017-Nov-10 10:00N 40°38' W 074°07'0 0.0
2017-Nov-10 09:30N 40°38' W 074°07'0 0.0
2017-Nov-10 09:00N 40°38' W 074°07'0 0.0
2017-Nov-10 08:30N 40°38' W 074°07'0 0.0
2017-Nov-10 08:00N 40°38' W 074°07'0 0.0
2017-Nov-10 07:30N 40°38' W 074°07'0 0.0
2017-Nov-10 07:00N 40°38' W 074°07'0 0.0
2017-Nov-10 06:30N 40°38' W 074°07'0 0.0
2017-Nov-10 06:00N 40°38' W 074°07'0 0.0
2017-Nov-10 05:29N 40°38' W 074°07'0 0.0
2017-Nov-10 05:00N 40°38' W 074°07'0 0.0
2017-Nov-10 04:30N 40°38' W 074°07'0 0.0
2017-Nov-10 04:00N 40°38' W 074°07'0 0.0
2017-Nov-10 03:30N 40°38' W 074°07'0 0.0
2017-Nov-10 03:00N 40°38' W 074°07'0 0.0
2017-Nov-10 02:30N 40°38' W 074°07'0 0.0
2017-Nov-10 01:59N 40°38' W 074°07'0 0.0
2017-Nov-10 01:30N 40°38' W 074°07'0 0.0
2017-Nov-10 01:00N 40°38' W 074°07'0 0.0
2017-Nov-10 00:30N 40°38' W 074°07'0 0.0
2017-Nov-10 00:00N 40°38' W 074°07'0 0.0
2017-Nov-09 23:29N 40°38' W 074°07'0 0.0
2017-Nov-09 23:00N 40°38' W 074°07'0 0.0
2017-Nov-09 22:30N 40°38' W 074°07'0 0.0
2017-Nov-09 22:00N 40°38' W 074°07'0 0.0
2017-Nov-09 21:29N 40°38' W 074°07'0 0.0
2017-Nov-09 21:00N 40°38' W 074°07'0 0.0
2017-Nov-09 20:30N 40°38' W 074°07'0 0.0
2017-Nov-09 20:00N 40°38' W 074°07'0 0.0
2017-Nov-09 19:30N 40°38' W 074°07'0 0.0
2017-Nov-09 19:00N 40°38' W 074°07'0 0.0
2017-Nov-09 18:30N 40°38' W 074°07'0 0.0
2017-Nov-09 18:00N 40°38' W 074°07'0 0.0
2017-Nov-09 17:30N 40°38' W 074°07'0 0.0
2017-Nov-09 17:00N 40°38' W 074°07'0 0.0
2017-Nov-09 16:30N 40°38' W 074°07'0 0.0
2017-Nov-09 16:00N 40°38' W 074°07'0 0.0
2017-Nov-09 15:30N 40°38' W 074°07'0 0.0
2017-Nov-09 15:00N 40°38' W 074°07'0 0.0
2017-Nov-09 14:30N 40°38' W 074°07'0 0.0
2017-Nov-09 14:00N 40°38' W 074°07'0 0.0
2017-Nov-09 13:30N 40°38' W 074°07'0 0.0
2017-Nov-09 12:59N 40°38' W 074°07'0 0.0
2017-Nov-09 12:00N 40°38' W 074°07'0 0.0
2017-Nov-09 11:30N 40°38' W 074°07'0 0.0
2017-Nov-09 11:00N 40°38' W 074°07'0 0.0
2017-Nov-09 10:30N 40°38' W 074°07'0 0.0
2017-Nov-09 10:00N 40°38' W 074°07'0 0.0
2017-Nov-09 09:30N 40°38' W 074°07'0 0.0
2017-Nov-09 09:00N 40°38' W 074°07'0 0.0
2017-Nov-09 08:30N 40°38' W 074°07'0 0.0
2017-Nov-09 08:00N 40°38' W 074°07'0 0.0
2017-Nov-09 07:30N 40°38' W 074°07'0 0.0
2017-Nov-09 07:00N 40°38' W 074°07'0 0.0
2017-Nov-09 06:30N 40°38' W 074°07'0 0.0
2017-Nov-09 06:00N 40°38' W 074°07'0 0.0
2017-Nov-09 05:30N 40°38' W 074°07'0 0.0
2017-Nov-09 05:00N 40°38' W 074°07'0 0.0
2017-Nov-09 04:30N 40°38' W 074°07'0 0.0
2017-Nov-09 04:00N 40°38' W 074°07'0 0.0
2017-Nov-09 03:30N 40°38' W 074°07'0 0.0
2017-Nov-09 03:00N 40°38' W 074°07'0 0.0
2017-Nov-09 02:30N 40°38' W 074°07'0 0.0
2017-Nov-09 02:00N 40°38' W 074°07'0 0.0
2017-Nov-09 01:30N 40°38' W 074°07'0 0.0
2017-Nov-09 01:00N 40°38' W 074°07'0 0.0
2017-Nov-09 00:30N 40°38' W 074°07'0 0.0
2017-Nov-09 00:00N 40°38' W 074°07'0 0.0
2017-Nov-08 23:30N 40°38' W 074°07'0 0.0
2017-Nov-08 23:00N 40°38' W 074°07'0 0.0
2017-Nov-08 22:30N 40°38' W 074°07'0 0.0
2017-Nov-08 22:00N 40°38' W 074°07'0 0.0
2017-Nov-08 21:30N 40°38' W 074°07'0 0.0
2017-Nov-08 21:00N 40°38' W 074°07'0 0.0
2017-Nov-08 20:30N 40°38' W 074°07'0 0.0
2017-Nov-08 20:00N 40°38' W 074°07'0 0.0
2017-Nov-08 19:30N 40°39' W 074°07'2 4.2
2017-Nov-08 19:00N 40°39' W 074°05'4 8.0
2017-Nov-08 18:30N 40°42' W 074°00'5 9.4
2017-Nov-08 18:00N 40°46' W 073°57'4 8.7
2017-Nov-08 17:30N 40°48' W 073°52'3 5.3
2017-Nov-08 16:57N 40°48' W 073°49'0 0.1
2017-Nov-08 16:30N 40°48' W 073°49'0 0.2
2017-Nov-08 16:00N 40°48' W 073°49'0 0.6
2017-Nov-08 15:30N 40°48' W 073°48'1 2.2
2017-Nov-08 14:58N 40°49' W 073°47'0 0.1
2017-Nov-08 14:24N 40°49' W 073°47'1 3.5
2017-Nov-08 14:00N 40°48' W 073°48'4 7.2
2017-Nov-08 13:30N 40°48' W 073°53'3 7.1
2017-Nov-08 13:00N 40°46' W 073°57'4 7.6
2017-Nov-08 12:30N 40°42' W 073°59'4 7.9
2017-Nov-08 12:00N 40°39' W 074°02'  
Track history (hours):
 
Tides and Currents Weather Stations Pressure Air Temp Water Temp Dewpoint Dewpoint Depression Visibility Wind Speed Wind Dir Waves Ship Positions

Allie B

Owner: Dann, Stephen, Tampa, FL. More information available from US FCC via Universal Licensing System and Coast Guard Vessel Documentation Center.

Last reported at 2017-Nov-18 11:31 UTC. Time now 2017-Nov-18 11:56 UTC.
Position N 39°57' W 075°08'.

Length 35 m; draft 4 m.

Type: Tow > 200 m length. MMSI: 367137180.

Date/timePositionNaut miles runAvg speedWind from/ knotsBaromVisibWave heightAir tempDewpointWater temp
2017-Nov-18 11:31N 39°57' W 075°08'0 0.0
2017-Nov-18 11:01N 39°57' W 075°08'0 0.0
2017-Nov-18 10:31N 39°57' W 075°08'0 0.0
2017-Nov-18 10:00N 39°57' W 075°08'0 0.0
2017-Nov-18 09:31N 39°57' W 075°08'0 0.0
2017-Nov-18 09:01N 39°57' W 075°08'0 0.0
2017-Nov-18 08:30N 39°57' W 075°08'0 0.0
2017-Nov-18 08:01N 39°57' W 075°08'0 0.0
2017-Nov-18 07:31N 39°57' W 075°08'0 0.0
2017-Nov-18 07:00N 39°57' W 075°08'0 0.0
2017-Nov-18 06:30N 39°57' W 075°08'0 0.0
2017-Nov-18 06:00N 39°57' W 075°08'0 0.0
2017-Nov-18 05:30N 39°57' W 075°08'0 0.0
2017-Nov-18 05:00N 39°57' W 075°08'0 0.0
2017-Nov-18 04:30N 39°57' W 075°08'0 0.0
2017-Nov-18 04:00N 39°57' W 075°08'0 0.0
2017-Nov-18 03:30N 39°57' W 075°08'0 0.0
2017-Nov-18 03:00N 39°57' W 075°08'0 0.0
2017-Nov-18 02:30N 39°57' W 075°08'0 0.0
2017-Nov-18 02:01N 39°57' W 075°08'0 0.0
2017-Nov-18 01:30N 39°57' W 075°08'0 0.0
2017-Nov-18 01:00N 39°57' W 075°08'0 0.0
2017-Nov-18 00:30N 39°57' W 075°08'0 0.0
2017-Nov-18 00:00N 39°57' W 075°08'0 0.0
2017-Nov-17 23:31N 39°57' W 075°08'0 0.0
2017-Nov-17 23:00N 39°57' W 075°08'0 0.0
2017-Nov-17 22:30N 39°57' W 075°08'0 0.0
2017-Nov-17 22:01N 39°57' W 075°08'0 0.0
2017-Nov-17 21:30N 39°57' W 075°08'0 0.0
2017-Nov-17 20:47N 39°57' W 075°08'0 0.0
2017-Nov-17 20:30N 39°57' W 075°08'0 0.0
2017-Nov-17 20:00N 39°57' W 075°08'0 0.0
2017-Nov-17 19:30N 39°57' W 075°08'0 0.0
2017-Nov-17 19:00N 39°57' W 075°08'0 0.0
2017-Nov-17 18:30N 39°57' W 075°08'0 0.0
2017-Nov-17 18:00N 39°57' W 075°08'2 4.4
2017-Nov-17 17:30N 39°55' W 075°08'3 6.8
2017-Nov-17 17:01N 39°53' W 075°12'0 0.3
2017-Nov-17 16:30N 39°53' W 075°12'0 0.0
2017-Nov-17 16:00N 39°53' W 075°12'0 0.0
2017-Nov-17 15:30N 39°53' W 075°12'0 0.0
2017-Nov-17 15:00N 39°53' W 075°12'0 0.0
2017-Nov-17 14:30N 39°53' W 075°12'0 0.0
2017-Nov-17 14:00N 39°53' W 075°12'0 0.0
2017-Nov-17 13:30N 39°53' W 075°12'0 0.0
2017-Nov-17 13:01N 39°53' W 075°12'0 0.0
2017-Nov-17 12:30N 39°53' W 075°12'0 0.0
2017-Nov-17 12:00N 39°53' W 075°12'3 5.2
2017-Nov-17 11:30N 39°52' W 075°14'4 7.5
2017-Nov-17 11:00N 39°51' W 075°19'3 6.7
2017-Nov-17 10:30N 39°50' W 075°23'3 6.9
2017-Nov-17 10:00N 39°48' W 075°26'3 6.7
2017-Nov-17 09:30N 39°45' W 075°29'3 7.0
2017-Nov-17 09:00N 39°42' W 075°31'4 7.4
2017-Nov-17 08:30N 39°39' W 075°33'3 6.3
2017-Nov-17 08:00N 39°36' W 075°34'2 4.9
2017-Nov-17 07:30N 39°33' W 075°35'4 7.8
2017-Nov-17 07:00N 39°33' W 075°40'3 6.7
2017-Nov-17 06:30N 39°32' W 075°45'3 6.3
2017-Nov-17 06:00N 39°32' W 075°49'3 6.1
2017-Nov-17 05:30N 39°31' W 075°53'4 8.6
2017-Nov-17 05:00N 39°29' W 075°57'510.0
2017-Nov-17 04:30N 39°25' W 076°02'5 9.5
2017-Nov-17 04:00N 39°23' W 076°07'5 9.4
2017-Nov-17 03:30N 39°20' W 076°12'5 9.2
2017-Nov-17 02:57N 39°15' W 076°14'8 9.6
2017-Nov-17 02:07N 39°08' W 076°19'59 9.5
2017-Nov-16 19:54N 38°09' W 076°17'510.2
2017-Nov-16 19:26N 38°05' W 076°15'6510.1
2017-Nov-16 13:03N 37°00' W 076°17'1 9.5
2017-Nov-16 12:56N 36°59' W 076°19'410.4
2017-Nov-16 12:30N 36°55' W 076°20'4 8.9
2017-Nov-16 12:00N 36°51' W 076°18'3 5.7
2017-Nov-16 11:30N 36°48' W 076°17'2 3.7
2017-Nov-16 11:00N 36°46' W 076°18'1 1.2
2017-Nov-16 10:31N 36°46' W 076°18'1 1.3
2017-Nov-16 10:01N 36°47' W 076°18'2 3.5
2017-Nov-16 09:30N 36°48' W 076°17'3 5.6
2017-Nov-16 09:00N 36°51' W 076°18'3 5.3
2017-Nov-16 08:30N 36°53' W 076°20'4 6.6
2017-Nov-16 07:57N 36°57' W 076°20'11 2.3
2017-Nov-16 03:07N 36°58' W 076°06'0 4.3
2017-Nov-16 03:00N 36°58' W 076°06'2 4.9
2017-Nov-16 02:30N 36°58' W 076°03'170 7.5
2017-Nov-15 04:02N 39°23' W 074°12'4 8.7
2017-Nov-15 03:35N 39°26' W 074°09'1 8.8
2017-Nov-15 03:29N 39°27' W 074°08'4 8.7
2017-Nov-15 03:00N 39°30' W 074°05'4 8.8
2017-Nov-15 02:30N 39°35' W 074°03'4 8.8
2017-Nov-15 02:00N 39°39' W 074°02'5 9.0
2017-Nov-15 01:30N 39°43' W 073°60'5 9.3
2017-Nov-15 01:00N 39°48' W 073°58'5 9.1
2017-Nov-15 00:30N 39°52' W 073°58'30 9.1
2017-Nov-14 21:12N 40°22' W 073°55'2 9.3
2017-Nov-14 20:58N 40°24' W 073°54'4 7.8
2017-Nov-14 20:30N 40°28' W 073°55'3 5.9
2017-Nov-14 19:55N 40°30' W 073°58'3 6.5
2017-Nov-14 19:30N 40°32' W 074°01'4 7.4
2017-Nov-14 19:00N 40°35' W 074°02'3 6.8
2017-Nov-14 18:30N 40°39' W 074°02'1 1.3
2017-Nov-14 18:00N 40°39' W 074°02'0 0.1
2017-Nov-14 17:31N 40°39' W 074°02'3 5.1
2017-Nov-14 17:00N 40°39' W 074°06'1 2.7
2017-Nov-14 16:30N 40°39' W 074°07'0 0.1
2017-Nov-14 15:47N 40°39' W 074°07'0 0.1
2017-Nov-14 15:30N 40°39' W 074°07'0 0.0
2017-Nov-14 15:00N 40°39' W 074°07'0 0.0
2017-Nov-14 14:30N 40°39' W 074°07'0 0.0
2017-Nov-14 14:00N 40°39' W 074°07'1 1.5
2017-Nov-14 13:30N 40°39' W 074°06'4 8.6
2017-Nov-14 13:00N 40°40' W 074°01'1 1.2
2017-Nov-14 12:30N 40°40' W 074°01'1 1.7
2017-Nov-14 12:00N 40°39' W 074°02'3 5.8
2017-Nov-14 11:31N 40°42' W 074°00'4 7.7
2017-Nov-14 11:00N 40°45' W 073°58'4 7.2
2017-Nov-14 10:30N 40°48' W 073°55'4 7.9
2017-Nov-14 10:00N 40°48' W 073°49'3 6.1
2017-Nov-14 09:30N 40°50' W 073°46'43 9.5
2017-Nov-14 04:55N 41°05' W 072°52'4 9.2
2017-Nov-14 04:29N 41°06' W 072°47'4 9.1
2017-Nov-14 04:01N 41°08' W 072°42'4 8.9
2017-Nov-14 03:31N 41°09' W 072°36'4 8.5
2017-Nov-14 03:00N 41°10' W 072°31'4 8.4
2017-Nov-14 02:30N 41°11' W 072°25'4 8.5
2017-Nov-14 02:01N 41°12' W 072°20'5 9.0
2017-Nov-14 01:31N 41°13' W 072°14'42 1.4
2017-Nov-12 19:18N 41°35' W 071°25'1 3.7
2017-Nov-12 19:00N 41°34' W 071°25'0 0.8
2017-Nov-12 18:30N 41°34' W 071°24'0 0.2
2017-Nov-12 18:00N 41°34' W 071°24'0 0.2
2017-Nov-12 17:30N 41°34' W 071°24'0 0.1
2017-Nov-12 17:00N 41°34' W 071°24'1 1.1
2017-Nov-12 16:30N 41°33' W 071°24'37 4.1
2017-Nov-12 07:27N 41°14' W 072°06'2 5.2
2017-Nov-12 07:00N 41°14' W 072°09'3 5.4
2017-Nov-12 06:30N 41°14' W 072°13'3 6.0
2017-Nov-12 05:59N 41°13' W 072°17'3 6.2
2017-Nov-12 05:30N 41°12' W 072°21'3 6.6
2017-Nov-12 05:00N 41°11' W 072°25'3 6.9
2017-Nov-12 04:30N 41°10' W 072°29'4 7.4
2017-Nov-12 04:00N 41°09' W 072°34'4 7.9
2017-Nov-12 03:27N 41°08' W 072°40'51 7.5
2017-Nov-11 20:38N 40°52' W 073°44'2 7.2
2017-Nov-11 20:25N 40°51' W 073°45'3 6.6
2017-Nov-11 19:58N 40°48' W 073°47'4 7.9
2017-Nov-11 19:30N 40°48' W 073°52'3 6.6
2017-Nov-11 19:00N 40°47' W 073°56'4 7.3
2017-Nov-11 18:30N 40°44' W 073°58'3 6.2
2017-Nov-11 18:00N 40°41' W 074°01'1 2.5
2017-Nov-11 17:30N 40°40' W 074°01'0 0.0
2017-Nov-11 17:01N 40°40' W 074°01'1 1.8
2017-Nov-11 16:30N 40°40' W 074°02'4 8.9
2017-Nov-11 16:00N 40°39' W 074°07'2 4.6
2017-Nov-11 15:30N 40°39' W 074°04'2 3.2
2017-Nov-11 15:01N 40°39' W 074°02'2 4.6
2017-Nov-11 14:31N 40°39' W 074°05'1 2.2
2017-Nov-11 14:01N 40°39' W 074°07'0 0.0
2017-Nov-11 13:30N 40°39' W 074°07'0 0.0
2017-Nov-11 13:00N 40°39' W 074°07'1 1.4
2017-Nov-11 12:30N 40°38' W 074°07'0 0.0
2017-Nov-11 12:00N 40°38' W 074°07'0 0.0
2017-Nov-11 11:30N 40°38' W 074°07'0 0.0
2017-Nov-11 11:00N 40°38' W 074°07'0 0.0
2017-Nov-11 10:30N 40°38' W 074°07'0 0.0
2017-Nov-11 10:00N 40°38' W 074°07'0 0.0
2017-Nov-11 09:30N 40°38' W 074°07'0 0.0
2017-Nov-11 09:00N 40°38' W 074°07'0 0.0
2017-Nov-11 08:30N 40°38' W 074°07'0 0.0
2017-Nov-11 08:00N 40°38' W 074°07'0 0.0
2017-Nov-11 07:30N 40°38' W 074°07'0 0.0
2017-Nov-11 07:00N 40°38' W 074°07'0 0.0
2017-Nov-11 06:30N 40°38' W 074°07'0 0.0
2017-Nov-11 06:00N 40°38' W 074°07'0 0.0
2017-Nov-11 05:30N 40°38' W 074°07'0 0.0
2017-Nov-11 05:00N 40°38' W 074°07'0 0.0
2017-Nov-11 04:30N 40°38' W 074°07'0 0.0
2017-Nov-11 04:00N 40°38' W 074°07'0 0.0
2017-Nov-11 03:30N 40°38' W 074°07'0 0.0
2017-Nov-11 03:00N 40°38' W 074°07'0 0.0
2017-Nov-11 02:30N 40°38' W 074°07'0 0.0
2017-Nov-11 02:00N 40°38' W 074°07'0 0.0
2017-Nov-11 01:30N 40°38' W 074°07'0 0.0
2017-Nov-11 01:00N 40°38' W 074°07'0 0.0
2017-Nov-11 00:30N 40°38' W 074°07'0 0.0
2017-Nov-11 00:00N 40°38' W 074°07'0 0.0
2017-Nov-10 23:30N 40°38' W 074°07'0 0.0
2017-Nov-10 23:00N 40°38' W 074°07'0 0.0
2017-Nov-10 22:30N 40°38' W 074°07'0 0.0
2017-Nov-10 22:00N 40°38' W 074°07'0 0.0
2017-Nov-10 21:30N 40°38' W 074°07'0 0.0
2017-Nov-10 21:00N 40°38' W 074°07'0 0.0
2017-Nov-10 20:30N 40°38' W 074°07'0 0.0
2017-Nov-10 20:00N 40°38' W 074°07'0 0.0
2017-Nov-10 19:30N 40°38' W 074°07'0 0.0
2017-Nov-10 19:00N 40°38' W 074°07'0 0.0
2017-Nov-10 18:30N 40°38' W 074°07'0 0.0
2017-Nov-10 18:00N 40°38' W 074°07'0 0.0
2017-Nov-10 17:30N 40°38' W 074°07'0 0.0
2017-Nov-10 17:00N 40°38' W 074°07'0 0.0
2017-Nov-10 16:30N 40°38' W 074°07'0 0.0
2017-Nov-10 16:00N 40°38' W 074°07'0 0.0
2017-Nov-10 15:30N 40°38' W 074°07'0 0.0
2017-Nov-10 15:00N 40°38' W 074°07'0 0.0
2017-Nov-10 14:30N 40°38' W 074°07'0 0.0
2017-Nov-10 14:00N 40°38' W 074°07'0 0.0
2017-Nov-10 13:30N 40°38' W 074°07'0 0.0
2017-Nov-10 13:00N 40°38' W 074°07'0 0.0
2017-Nov-10 12:30N 40°38' W 074°07'0 0.0
2017-Nov-10 12:00N 40°38' W 074°07'0 0.0
2017-Nov-10 11:29N 40°38' W 074°07'0 0.0
2017-Nov-10 11:00N 40°38' W 074°07'0 0.0
2017-Nov-10 10:30N 40°38' W 074°07'0 0.0
2017-Nov-10 10:00N 40°38' W 074°07'0 0.0
2017-Nov-10 09:30N 40°38' W 074°07'0 0.0
2017-Nov-10 09:00N 40°38' W 074°07'0 0.0
2017-Nov-10 08:30N 40°38' W 074°07'0 0.0
2017-Nov-10 08:00N 40°38' W 074°07'0 0.0
2017-Nov-10 07:30N 40°38' W 074°07'0 0.0
2017-Nov-10 07:00N 40°38' W 074°07'0 0.0
2017-Nov-10 06:30N 40°38' W 074°07'0 0.0
2017-Nov-10 06:00N 40°38' W 074°07'0 0.0
2017-Nov-10 05:29N 40°38' W 074°07'0 0.0
2017-Nov-10 05:00N 40°38' W 074°07'0 0.0
2017-Nov-10 04:30N 40°38' W 074°07'0 0.0
2017-Nov-10 04:00N 40°38' W 074°07'0 0.0
2017-Nov-10 03:30N 40°38' W 074°07'0 0.0
2017-Nov-10 03:00N 40°38' W 074°07'0 0.0
2017-Nov-10 02:30N 40°38' W 074°07'0 0.0
2017-Nov-10 01:59N 40°38' W 074°07'0 0.0
2017-Nov-10 01:30N 40°38' W 074°07'0 0.0
2017-Nov-10 01:00N 40°38' W 074°07'0 0.0
2017-Nov-10 00:30N 40°38' W 074°07'0 0.0
2017-Nov-10 00:00N 40°38' W 074°07'0 0.0
2017-Nov-09 23:29N 40°38' W 074°07'0 0.0
2017-Nov-09 23:00N 40°38' W 074°07'0 0.0
2017-Nov-09 22:30N 40°38' W 074°07'0 0.0
2017-Nov-09 22:00N 40°38' W 074°07'0 0.0
2017-Nov-09 21:29N 40°38' W 074°07'0 0.0
2017-Nov-09 21:00N 40°38' W 074°07'0 0.0
2017-Nov-09 20:30N 40°38' W 074°07'0 0.0
2017-Nov-09 20:00N 40°38' W 074°07'0 0.0
2017-Nov-09 19:30N 40°38' W 074°07'0 0.0
2017-Nov-09 19:00N 40°38' W 074°07'0 0.0
2017-Nov-09 18:30N 40°38' W 074°07'0 0.0
2017-Nov-09 18:00N 40°38' W 074°07'0 0.0
2017-Nov-09 17:30N 40°38' W 074°07'0 0.0
2017-Nov-09 17:00N 40°38' W 074°07'0 0.0
2017-Nov-09 16:30N 40°38' W 074°07'0 0.0
2017-Nov-09 16:00N 40°38' W 074°07'0 0.0
2017-Nov-09 15:30N 40°38' W 074°07'0 0.0
2017-Nov-09 15:00N 40°38' W 074°07'0 0.0
2017-Nov-09 14:30N 40°38' W 074°07'0 0.0
2017-Nov-09 14:00N 40°38' W 074°07'0 0.0
2017-Nov-09 13:30N 40°38' W 074°07'0 0.0
2017-Nov-09 12:59N 40°38' W 074°07'0 0.0
2017-Nov-09 12:00N 40°38' W 074°07'0 0.0
2017-Nov-09 11:30N 40°38' W 074°07'0 0.0
2017-Nov-09 11:00N 40°38' W 074°07'0 0.0
2017-Nov-09 10:30N 40°38' W 074°07'0 0.0
2017-Nov-09 10:00N 40°38' W 074°07'0 0.0
2017-Nov-09 09:30N 40°38' W 074°07'0 0.0
2017-Nov-09 09:00N 40°38' W 074°07'0 0.0
2017-Nov-09 08:30N 40°38' W 074°07'0 0.0
2017-Nov-09 08:00N 40°38' W 074°07'0 0.0
2017-Nov-09 07:30N 40°38' W 074°07'0 0.0
2017-Nov-09 07:00N 40°38' W 074°07'0 0.0
2017-Nov-09 06:30N 40°38' W 074°07'0 0.0
2017-Nov-09 06:00N 40°38' W 074°07'0 0.0
2017-Nov-09 05:30N 40°38' W 074°07'0 0.0
2017-Nov-09 05:00N 40°38' W 074°07'0 0.0
2017-Nov-09 04:30N 40°38' W 074°07'0 0.0
2017-Nov-09 04:00N 40°38' W 074°07'0 0.0
2017-Nov-09 03:30N 40°38' W 074°07'0 0.0
2017-Nov-09 03:00N 40°38' W 074°07'0 0.0
2017-Nov-09 02:30N 40°38' W 074°07'0 0.0
2017-Nov-09 02:00N 40°38' W 074°07'0 0.0
2017-Nov-09 01:30N 40°38' W 074°07'0 0.0
2017-Nov-09 01:00N 40°38' W 074°07'0 0.0
2017-Nov-09 00:30N 40°38' W 074°07'0 0.0
2017-Nov-09 00:00N 40°38' W 074°07'0 0.0
2017-Nov-08 23:30N 40°38' W 074°07'0 0.0
2017-Nov-08 23:00N 40°38' W 074°07'0 0.0
2017-Nov-08 22:30N 40°38' W 074°07'0 0.0
2017-Nov-08 22:00N 40°38' W 074°07'0 0.0
2017-Nov-08 21:30N 40°38' W 074°07'0 0.0
2017-Nov-08 21:00N 40°38' W 074°07'0 0.0
2017-Nov-08 20:30N 40°38' W 074°07'0 0.0
2017-Nov-08 20:00N 40°38' W 074°07'0 0.0
2017-Nov-08 19:30N 40°39' W 074°07'2 4.2
2017-Nov-08 19:00N 40°39' W 074°05'4 8.0
2017-Nov-08 18:30N 40°42' W 074°00'5 9.4
2017-Nov-08 18:00N 40°46' W 073°57'4 8.7
2017-Nov-08 17:30N 40°48' W 073°52'3 5.3
2017-Nov-08 16:57N 40°48' W 073°49'0 0.1
2017-Nov-08 16:30N 40°48' W 073°49'0 0.2
2017-Nov-08 16:00N 40°48' W 073°49'0 0.6
2017-Nov-08 15:30N 40°48' W 073°48'1 2.2
2017-Nov-08 14:58N 40°49' W 073°47'0 0.1
2017-Nov-08 14:24N 40°49' W 073°47'1 3.5
2017-Nov-08 14:00N 40°48' W 073°48'4 7.2
2017-Nov-08 13:30N 40°48' W 073°53'3 7.1
2017-Nov-08 13:00N 40°46' W 073°57'4 7.6
2017-Nov-08 12:30N 40°42' W 073°59'4 7.9
2017-Nov-08 12:00N 40°39' W 074°02'  

Dump ship's entire track history